Time;durP1;ratioP1;P1;durP2;ratioP2;P2;SDS_P1;SDS_P2;PMS_P1;PMS_P2;Temp;Humidity;BMP_temperature;BMP_pressure;BME280_temperature;BME280_humidity;BME280_pressure;Samples;Min_cycle;Max_cycle;Signal;HPM_P1;HPM_P2
2020/12/03 00:01:13;;;;;;;25.00;14.55;;;3.30;99.90;;;3.92;89.91;100050.00;4979284;28;20062;-82
2020/12/03 00:03:48;;;;;;;27.77;14.65;;;3.30;99.90;;;3.88;90.29;100043.53;4977280;28;20130;-81
2020/12/03 00:06:22;;;;;;;21.35;13.05;;;3.30;99.90;;;3.84;90.80;100037.03;4979267;28;20037;-82
2020/12/03 00:09:10;;;;;;;27.10;14.57;;;3.20;99.90;;;3.77;90.86;100033.94;4994526;28;20031;-81
2020/12/03 00:11:50;;;;;;;23.38;14.18;;;3.20;99.90;;;3.79;90.80;100031.69;4980185;28;20424;-82
2020/12/03 00:14:17;;;;;;;24.00;14.50;;;3.20;99.90;;;3.78;90.87;100025.34;4970972;28;20027;-80
2020/12/03 00:16:46;;;;;;;26.67;14.23;;;3.30;99.90;;;3.86;90.75;100018.16;5005086;28;20043;-79
2020/12/03 00:19:13;;;;;;;23.60;13.43;;;3.30;99.90;;;3.96;90.03;100018.63;4965683;28;20037;-84
2020/12/03 00:21:45;;;;;;;24.70;14.63;;;3.30;99.90;;;3.96;90.21;100012.28;4977052;28;20435;-81
2020/12/03 00:24:24;;;;;;;25.77;14.18;;;3.30;99.90;;;3.82;90.64;100009.72;4977828;28;20033;-82
2020/12/03 00:26:51;;;;;;;24.20;13.80;;;3.30;99.90;;;3.85;90.74;100002.75;4977215;28;20042;-80
2020/12/03 00:29:21;;;;;;;25.25;14.63;;;3.20;99.90;;;3.98;90.70;99998.97;4954840;28;20097;-83
2020/12/03 00:31:49;;;;;;;24.40;14.27;;;3.30;99.90;;;4.01;89.96;99998.31;4974337;28;20037;-83
2020/12/03 00:34:18;;;;;;;27.55;15.05;;;3.30;99.90;;;3.93;90.67;99993.59;4970288;28;20031;-82
2020/12/03 00:36:44;;;;;;;24.83;14.13;;;3.30;99.90;;;3.79;90.80;99993.81;4958104;28;20040;-83
2020/12/03 00:39:15;;;;;;;23.75;14.93;;;3.30;99.90;;;3.84;90.56;99987.31;4977146;28;20101;-81
2020/12/03 00:41:51;;;;;;;23.92;14.32;;;3.30;99.90;;;3.96;90.66;99988.22;4960688;28;20031;-84
2020/12/03 00:44:18;;;;;;;23.65;13.90;;;3.30;99.90;;;3.96;90.39;99982.72;4971173;28;20037;-82
2020/12/03 00:46:46;;;;;;;24.88;14.27;;;3.40;99.90;;;3.96;90.01;99984.66;4978192;28;20035;-82
2020/12/03 00:49:16;;;;;;;22.75;12.63;;;3.40;99.90;;;4.05;89.96;99975.19;4960352;28;20058;-80
2020/12/03 00:51:46;;;;;;;25.17;14.75;;;3.40;99.90;;;3.97;89.81;99975.25;4977543;28;20035;-82
2020/12/03 00:54:12;;;;;;;26.05;13.82;;;3.40;99.90;;;3.95;89.99;99972.00;4959318;28;20030;-82
2020/12/03 00:56:38;;;;;;;28.27;15.10;;;3.40;99.90;;;4.02;90.08;99967.56;4968042;28;20027;-80
2020/12/03 00:59:04;;;;;;;23.27;13.18;;;3.40;99.90;;;4.03;89.95;99957.34;4975916;28;20073;-82
2020/12/03 01:01:34;;;;;;;26.42;14.90;;;3.40;99.90;;;3.96;89.82;99962.56;4959463;28;20424;-82
2020/12/03 01:04:00;;;;;;;26.35;14.55;;;3.40;99.90;;;3.98;89.95;99957.53;4956008;28;20439;-81
2020/12/03 01:06:26;;;;;;;25.13;16.08;;;3.40;99.90;;;4.06;89.53;99951.94;4958304;29;20031;-81
2020/12/03 01:08:52;;;;;;;23.65;14.80;;;3.40;99.90;;;4.00;89.70;99947.75;4956819;29;20098;-82
2020/12/03 01:11:23;;;;;;;24.05;13.68;;;3.40;99.90;;;4.08;90.01;99948.84;4957567;29;20444;-82
2020/12/03 01:13:50;;;;;;;24.17;14.25;;;3.50;99.90;;;4.07;89.85;99933.44;4940248;29;20062;-81
2020/12/03 01:16:19;;;;;;;26.75;13.73;;;3.50;99.90;;;4.11;89.62;99935.19;4956591;29;20110;-83
2020/12/03 01:18:48;;;;;;;24.17;13.77;;;3.50;99.90;;;4.06;90.00;99938.13;4956822;29;20027;-82
2020/12/03 01:21:22;;;;;;;27.08;14.98;;;3.50;99.90;;;4.12;89.82;99922.19;4957009;29;20086;-84
2020/12/03 01:23:50;;;;;;;25.17;15.25;;;3.50;99.90;;;4.15;89.62;99927.84;4956748;29;20027;-83
2020/12/03 01:26:20;;;;;;;27.33;15.93;;;3.50;99.90;;;4.12;89.67;99922.19;4956640;29;20027;-84
2020/12/03 01:28:48;;;;;;;26.35;15.25;;;3.50;99.90;;;4.11;89.72;99910.31;4956556;29;20110;-82
2020/12/03 01:31:14;;;;;;;28.30;15.15;;;3.50;99.90;;;4.15;89.47;99913.22;4959283;29;20031;-83
2020/12/03 01:33:41;;;;;;;26.65;14.77;;;3.50;99.90;;;4.03;90.29;99918.66;4958595;29;20055;-82
2020/12/03 01:36:08;;;;;;;27.27;15.45;;;3.50;99.90;;;4.19;90.07;99909.47;4960030;29;20051;-80
2020/12/03 01:38:34;;;;;;;28.35;15.90;;;3.50;99.90;;;4.19;89.89;99909.47;4959827;29;20475;-81
2020/12/03 01:41:01;;;;;;;27.15;15.50;;;3.50;99.90;;;4.21;89.62;99909.13;4943267;29;20090;-82
2020/12/03 01:43:27;;;;;;;27.77;16.30;;;3.50;99.90;;;4.03;89.85;99905.66;4959731;29;20055;-82
2020/12/03 01:45:54;;;;;;;29.63;16.73;;;3.60;99.90;;;4.12;90.30;99900.06;4959503;29;20042;-82
2020/12/03 01:48:47;;;;;;;31.27;17.50;;;3.50;99.90;;;4.14;89.71;99898.59;4958700;29;20035;-80
2020/12/03 01:51:32;;;;;;;23.50;13.90;;;3.60;99.90;;;4.05;90.06;99902.53;4942842;29;20039;-82
2020/12/03 01:54:09;;;;;;;26.90;16.30;;;3.60;99.90;;;4.22;89.62;99892.22;4959642;29;20515;-81
2020/12/03 01:57:03;;;;;;;30.17;17.20;;;3.60;99.90;;;4.17;89.60;99886.06;4959612;29;20135;-81
2020/12/03 01:59:41;;;;;;;27.42;15.57;;;3.60;99.90;;;4.11;89.24;99882.66;4942741;29;20487;-82
2020/12/03 02:02:12;;;;;;;26.23;15.80;;;3.60;99.90;;;4.24;89.62;99884.38;4958475;29;20023;-81
2020/12/03 02:04:38;;;;;;;28.67;14.88;;;3.60;99.90;;;4.21;89.36;99876.75;4959119;29;20083;-82
2020/12/03 02:07:13;;;;;;;24.95;14.30;;;3.60;99.90;;;4.23;89.38;99874.50;4959851;29;20566;-80
2020/12/03 02:09:40;;;;;;;28.05;15.40;;;3.60;99.90;;;4.28;89.69;99880.94;4958098;29;20035;-81
2020/12/03 02:12:11;;;;;;;25.42;14.43;;;3.60;99.90;;;4.19;88.89;99869.97;4959876;29;20038;-80
2020/12/03 02:14:36;;;;;;;23.90;14.00;;;3.60;99.90;;;4.20;89.86;99871.59;4942649;29;20102;-80
2020/12/03 02:17:02;;;;;;;27.48;15.60;;;3.60;99.90;;;4.22;89.17;99861.00;4957849;29;20070;-80
2020/12/03 02:19:32;;;;;;;24.00;14.52;;;3.60;99.90;;;4.14;90.11;99854.38;4958581;29;20027;-80
2020/12/03 02:22:09;;;;;;;21.77;13.55;;;3.60;99.90;;;4.19;89.29;99848.66;4958805;28;20035;-80
2020/12/03 02:24:42;;;;;;;25.02;14.57;;;3.60;99.90;;;4.22;88.79;99845.22;4958162;29;20487;-83
2020/12/03 02:27:13;;;;;;;22.80;14.55;;;3.60;99.90;;;4.29;89.37;99844.69;4975247;28;20054;-82
2020/12/03 02:29:39;;;;;;;23.00;13.27;;;3.70;99.90;;;4.28;89.09;99842.25;4977626;28;20199;-82
2020/12/03 02:32:06;;;;;;;24.55;14.65;;;3.70;99.90;;;4.16;89.30;99841.03;4990428;28;20019;-81
2020/12/03 02:34:32;;;;;;;22.95;13.38;;;3.60;99.90;;;4.22;89.57;99831.41;4987784;28;20077;-82
2020/12/03 02:37:06;;;;;;;22.67;13.50;;;3.60;99.90;;;4.20;89.20;99821.84;4974280;28;20053;-82
2020/12/03 02:40:18;;;;;;;26.52;13.40;;;3.70;99.90;;;4.31;89.33;99813.94;4974928;28;20070;-85
2020/12/03 02:43:42;;;;;;;23.92;14.02;;;3.70;99.90;;;4.17;89.53;99809.47;4975891;28;20517;-83
2020/12/03 02:46:08;;;;;;;24.25;14.13;;;3.70;99.90;;;4.23;89.35;99790.75;4936572;29;20047;-83
2020/12/03 02:48:33;;;;;;;19.08;12.68;;;3.60;99.90;;;4.14;89.43;99785.28;4936148;29;20058;-83
2020/12/03 02:51:19;;;;;;;23.23;13.23;;;3.70;99.90;;;4.13;89.59;99788.41;4919554;29;20051;-83
2020/12/03 02:53:45;;;;;;;19.70;12.20;;;3.70;99.90;;;4.28;89.15;99778.69;4900010;29;20489;-81
2020/12/03 02:56:13;;;;;;;21.35;12.88;;;3.60;99.90;;;4.20;89.29;99772.91;4900341;29;20176;-82
2020/12/03 02:59:12;;;;;;;21.13;12.40;;;3.70;99.90;;;4.23;89.01;99775.00;4901032;29;20500;-84
2020/12/03 03:05:23;;;;;;;18.98;11.70;;;3.70;99.90;;;4.24;88.79;99765.53;4917340;29;20043;-83
2020/12/03 03:07:52;;;;;;;19.45;11.27;;;3.70;99.90;;;4.28;88.63;99764.84;4899033;29;20159;-83
2020/12/03 03:10:21;;;;;;;20.13;12.15;;;3.70;99.90;;;4.32;88.30;99755.56;4916772;29;20062;-82
2020/12/03 03:13:30;;;;;;;19.13;11.60;;;3.70;99.90;;;4.34;88.46;99761.56;4916842;29;20058;-81
2020/12/03 03:16:38;;;;;;;22.63;11.70;;;3.70;99.90;;;4.37;87.93;99752.56;4863310;29;20029;-82
2020/12/03 03:19:24;;;;;;;19.23;11.13;;;3.70;99.90;;;4.36;88.03;99752.94;4893136;29;20060;-81
2020/12/03 03:21:53;;;;;;;18.95;11.15;;;3.80;99.90;;;4.33;88.17;99740.59;4897521;29;20128;-81
2020/12/03 03:24:44;;;;;;;21.15;12.23;;;3.70;99.90;;;4.32;88.75;99747.28;4893747;29;20177;-83
2020/12/03 03:27:10;;;;;;;20.67;11.85;;;3.80;99.90;;;4.33;87.85;99735.06;4919966;29;20039;-82
2020/12/03 03:29:36;;;;;;;21.48;11.30;;;3.80;99.90;;;4.37;87.81;99740.72;4985394;23;20517;-83
2020/12/03 03:32:02;;;;;;;16.45;10.88;;;3.80;99.90;;;4.36;88.00;99742.69;4978657;28;20030;-83
2020/12/03 03:34:27;;;;;;;19.73;11.48;;;3.80;99.90;;;4.40;87.96;99732.53;4995687;28;20418;-83
2020/12/03 03:36:53;;;;;;;19.25;12.15;;;3.80;99.90;;;4.41;87.91;99731.41;4995427;28;20379;-81
2020/12/03 03:39:25;;;;;;;19.50;11.80;;;3.80;99.90;;;4.43;88.50;99728.31;4989293;28;20470;-82
2020/12/03 03:41:53;;;;;;;19.17;11.43;;;3.80;99.90;;;4.51;88.34;99722.69;4977211;28;20034;-81
2020/12/03 03:44:21;;;;;;;19.30;10.27;;;3.80;99.90;;;4.37;88.97;99716.63;4959333;28;20038;-81
2020/12/03 03:47:01;;;;;;;18.35;11.15;;;3.80;99.90;;;4.24;89.76;99723.25;4960359;28;20051;-83
2020/12/03 03:54:43;;;;;;;17.30;10.38;;;3.80;99.90;;;4.28;89.56;99721.44;4938573;29;20067;-82
2020/12/03 03:57:30;;;;;;;18.98;10.63;;;3.80;99.90;;;4.24;90.36;99712.19;4951997;28;20047;-82
2020/12/03 04:00:38;;;;;;;19.23;11.15;;;3.80;99.90;;;4.24;90.48;99707.50;4958994;28;20026;-82
2020/12/03 04:09:28;;;;;;;20.60;11.88;;;3.80;99.90;;;4.32;90.51;99699.47;5006730;28;20030;-81
2020/12/03 04:12:17;;;;;;;21.33;12.40;;;3.80;99.90;;;4.31;90.78;99695.06;4998620;28;20030;-81
2020/12/03 04:15:17;;;;;;;;;;;;;;;;;;;;;
2020/12/03 04:18:30;;;;;;;17.95;11.43;;;3.80;99.90;;;4.17;91.40;99681.56;4984051;28;20498;-81
2020/12/03 04:21:04;;;;;;;21.27;12.32;;;3.80;99.90;;;4.15;91.36;99672.78;4962649;28;20054;-83
2020/12/03 04:23:30;;;;;;;22.10;12.10;;;3.80;99.90;;;4.20;91.44;99670.66;4958601;28;20027;-81
2020/12/03 04:25:59;;;;;;;18.40;11.25;;;3.80;99.90;;;4.24;90.83;99673.50;4959152;28;20048;-83
2020/12/03 04:28:25;;;;;;;20.25;12.40;;;3.90;99.90;;;4.32;90.58;99658.00;4974768;28;20103;-82
2020/12/03 04:30:51;;;;;;;18.23;11.50;;;3.80;99.90;;;4.26;90.78;99662.94;4974585;28;20050;-83
2020/12/03 04:33:17;;;;;;;16.67;10.55;;;3.80;99.90;;;4.16;90.93;99655.06;4958637;28;20089;-81
2020/12/03 04:35:43;;;;;;;18.25;11.60;;;3.80;99.90;;;4.23;91.00;99658.91;4974726;28;20094;-81
2020/12/03 04:38:11;;;;;;;21.60;12.27;;;3.80;99.90;;;4.28;90.99;99659.81;4975472;28;20035;-82
2020/12/03 04:40:42;;;;;;;20.90;11.98;;;3.80;99.90;;;4.34;90.96;99652.94;4958548;28;20033;-81
2020/12/03 04:43:43;;;;;;;20.70;12.52;;;3.80;99.90;;;4.21;92.07;99646.56;4975971;28;20030;-82
2020/12/03 04:46:37;;;;;;;20.70;11.75;;;3.80;99.90;;;4.27;92.07;99636.13;4958652;28;20051;-81
2020/12/03 04:49:41;;;;;;;22.40;11.98;;;3.80;99.90;;;4.24;91.98;99643.91;4974737;28;20031;-82
2020/12/03 04:52:28;;;;;;;22.38;12.82;;;3.80;99.90;;;4.15;92.61;99637.69;4959203;28;20169;-83
2020/12/03 04:55:16;;;;;;;22.45;12.65;;;3.80;99.90;;;4.17;91.81;99637.34;4975858;28;20038;-83
2020/12/03 04:57:55;;;;;;;19.60;11.38;;;3.80;99.90;;;4.14;91.59;99629.75;4982298;28;20506;-83
2020/12/03 05:01:27;;;;;;;18.25;11.65;;;3.80;99.90;;;4.15;91.89;99632.16;4972596;28;20038;-82
2020/12/03 05:04:08;;;;;;;17.77;10.98;;;3.80;99.90;;;4.23;91.41;99630.47;4977705;28;20027;-81
2020/12/03 05:07:01;;;;;;;20.15;12.18;;;3.80;99.90;;;4.17;91.93;99618.78;4994118;28;20589;-81
2020/12/03 05:09:41;;;;;;;23.05;11.65;;;3.80;99.90;;;4.15;92.00;99617.50;4977660;28;20049;-82
2020/12/03 05:12:29;;;;;;;19.85;11.60;;;3.80;99.90;;;4.16;91.86;99619.13;4994221;28;20450;-80
2020/12/03 05:15:12;;;;;;;18.02;10.75;;;3.80;99.90;;;4.19;91.29;99615.69;4944203;28;20119;-82
2020/12/03 05:18:37;;;;;;;18.75;11.50;;;3.80;99.90;;;4.19;91.12;99618.47;4977489;28;20039;-82
2020/12/03 05:21:03;;;;;;;18.52;9.80;;;3.80;99.90;;;4.13;91.31;99611.53;4979823;28;20038;-80
2020/12/03 05:23:36;;;;;;;17.42;10.80;;;3.80;99.90;;;4.16;91.33;99611.66;4994262;28;20320;-79
2020/12/03 05:26:23;;;;;;;16.70;10.15;;;3.70;99.90;;;4.11;91.17;99600.81;4993477;28;20442;-82
2020/12/03 05:29:10;;;;;;;18.45;11.32;;;3.70;99.90;;;4.10;91.39;99598.41;4961906;28;20045;-83
2020/12/03 05:31:44;;;;;;;;;;;3.70;99.90;;;4.13;90.98;99592.19;4962117;28;20038;-80
2020/12/03 05:34:23;;;;;;;16.60;10.55;;;3.70;99.90;;;4.17;90.72;99588.38;4973890;28;20026;-82
2020/12/03 05:36:54;;;;;;;18.88;9.98;;;3.70;99.90;;;4.14;91.27;99597.38;4957967;28;20039;-82
2020/12/03 05:39:36;;;;;;;22.13;10.18;;;3.70;99.90;;;4.20;90.84;99579.44;4982433;28;20030;-83
2020/12/03 05:42:24;;;;;;;16.85;10.10;;;3.70;99.90;;;4.20;90.71;99571.16;4952532;28;20027;-80
2020/12/03 05:44:57;;;;;;;17.27;9.57;;;3.70;99.90;;;4.19;90.16;99571.47;4968768;28;20140;-82
2020/12/03 05:47:35;;;;;;;16.00;9.63;;;3.70;99.90;;;4.15;90.19;99571.34;4969003;28;20113;-82
2020/12/03 05:50:29;;;;;;;15.25;8.77;;;3.70;99.90;;;4.20;90.02;99570.34;4959453;28;20125;-81
2020/12/03 05:53:13;;;;;;;15.18;8.70;;;3.80;99.90;;;4.19;90.40;99579.78;4985499;28;20081;-82
2020/12/03 05:55:43;;;;;;;15.27;9.00;;;3.80;99.90;;;4.21;90.15;99574.69;4976532;28;20022;-80
2020/12/03 05:58:21;;;;;;;16.30;9.10;;;3.70;99.90;;;4.17;90.41;99573.78;4976573;28;20053;-80
2020/12/03 06:00:50;;;;;;;15.25;8.93;;;3.80;99.90;;;4.23;90.26;99575.19;4994126;28;20417;-81
2020/12/03 06:04:16;;;;;;;14.75;8.85;;;3.70;99.90;;;4.14;90.16;99572.50;4992645;28;20084;-82
2020/12/03 06:07:31;;;;;;;14.40;8.20;;;3.70;99.90;;;4.25;89.77;99568.16;4982118;28;20474;-82
2020/12/03 06:11:04;;;;;;;14.15;7.57;;;3.80;99.90;;;4.19;89.82;99565.94;4974420;28;20105;-82
2020/12/03 06:14:15;;;;;;;11.88;7.32;;;3.80;99.90;;;4.17;89.40;99557.22;4924017;28;20046;-81
2020/12/03 06:17:12;;;;;;;12.35;7.25;;;3.80;99.90;;;4.18;88.80;99544.97;4935190;28;20114;-82
2020/12/03 06:20:08;;;;;;;11.82;7.50;;;3.80;99.90;;;4.19;89.08;99546.59;4957466;28;20039;-82
2020/12/03 06:23:27;;;;;;;13.00;8.15;;;3.80;99.90;;;4.20;88.88;99537.19;4973526;28;20031;-81
2020/12/03 06:26:23;;;;;;;14.25;7.93;;;3.80;99.90;;;4.20;89.35;99532.47;4992140;28;20030;-83
2020/12/03 06:29:16;;;;;;;14.00;8.25;;;3.80;99.90;;;4.22;89.46;99521.03;4976894;28;20046;-83
2020/12/03 06:32:41;;;;;;;14.43;8.00;;;3.70;99.90;;;4.18;89.53;99514.59;4977286;28;20034;-83
2020/12/03 06:35:37;;;;;;;12.98;8.48;;;3.70;99.90;;;4.04;89.41;99514.13;4983864;28;20042;-84
2020/12/03 06:38:50;;;;;;;13.45;8.43;;;3.70;99.90;;;4.17;88.96;99508.25;4982444;28;20063;-80
2020/12/03 06:41:42;;;;;;;13.95;8.65;;;3.70;99.90;;;4.06;89.21;99509.84;4976579;28;20117;-84
2020/12/03 06:44:34;;;;;;;15.57;8.75;;;3.80;99.90;;;4.17;89.24;99499.19;4958065;28;20035;-83
2020/12/03 06:47:54;;;;;;;15.65;8.77;;;3.70;99.90;;;4.21;89.03;99502.84;4982245;28;20030;-81
2020/12/03 06:51:49;;;;;;;14.70;8.82;;;3.80;99.90;;;4.19;89.31;99489.38;4956449;28;20080;-80
2020/12/03 06:54:59;;;;;;;17.25;9.18;;;3.80;99.90;;;4.22;88.32;99490.66;4903411;29;20499;-79
2020/12/03 06:58:18;;;;;;;14.27;8.48;;;3.80;99.90;;;4.25;88.31;99476.13;4880740;29;20547;-80
2020/12/03 07:01:53;;;;;;;18.27;9.90;;;3.80;99.90;;;4.20;88.81;99476.38;4937222;29;20535;-80
2020/12/03 07:05:11;;;;;;;17.83;10.25;;;3.80;99.90;;;4.23;88.47;99475.69;4941348;29;20492;-82
2020/12/03 07:08:05;;;;;;;15.50;9.50;;;3.80;99.90;;;4.30;88.37;99475.13;4957070;28;20127;-80
2020/12/03 07:11:51;;;;;;;18.52;9.73;;;3.80;99.90;;;4.24;88.38;99466.22;4982062;28;20074;-82
2020/12/03 07:14:41;;;;;;;15.75;9.55;;;3.80;99.90;;;4.20;88.42;99457.03;4922468;29;20521;-83
2020/12/03 07:17:43;;;;;;;17.90;9.88;;;3.80;99.90;;;4.21;88.23;99455.88;4957020;29;20062;-82
2020/12/03 07:20:52;;;;;;;18.63;10.38;;;3.80;99.90;;;4.24;88.57;99460.69;4990284;28;20022;-81
2020/12/03 07:24:06;;;;;;;15.82;9.23;;;3.90;99.90;;;4.38;87.44;99450.13;4988368;28;20049;-81
2020/12/03 07:27:06;;;;;;;16.40;9.18;;;3.90;99.90;;;4.21;88.08;99455.88;4928574;29;20048;-82
2020/12/03 07:30:01;;;;;;;18.58;9.52;;;3.90;99.90;;;4.25;87.97;99449.31;4912695;29;20063;-82
2020/12/03 07:32:55;;;;;;;15.25;8.80;;;3.90;99.90;;;4.23;88.12;99443.34;4972458;28;20136;-81
2020/12/03 07:35:36;;;;;;;18.02;9.90;;;3.90;99.90;;;4.31;88.12;99440.78;4978715;28;20026;-82
2020/12/03 07:38:31;;;;;;;17.83;10.10;;;3.90;99.90;;;4.25;87.87;99438.25;4978305;28;20041;-82
2020/12/03 07:41:00;;;;;;;17.60;10.65;;;3.90;99.90;;;4.36;88.15;99440.56;4987175;28;20129;-81
2020/12/03 07:43:37;;;;;;;20.83;9.48;;;3.90;99.90;;;4.38;87.44;99438.25;4972068;28;20029;-82
2020/12/03 07:46:28;;;;;;;17.92;10.82;;;3.90;99.90;;;4.27;87.63;99437.13;4967002;28;20027;-81
2020/12/03 07:49:48;;;;;;;16.08;9.88;;;3.90;99.90;;;4.44;86.12;99443.19;4959638;28;20208;-80
2020/12/03 07:52:38;;;;;;;19.77;10.13;;;3.90;99.90;;;4.34;87.29;99432.59;4959453;28;20114;-81
2020/12/03 07:55:23;;;;;;;16.17;9.75;;;4.00;99.90;;;4.40;87.29;99442.28;4962365;28;20019;-82
2020/12/03 07:57:56;;;;;;;18.20;9.85;;;4.00;99.90;;;4.49;87.05;99445.75;4968321;28;20037;-81
2020/12/03 08:00:24;;;;;;;16.70;9.25;;;4.00;99.90;;;4.60;86.36;99457.13;4967869;28;20118;-81
2020/12/03 08:02:59;;;;;;;16.08;9.45;;;4.00;99.90;;;4.51;86.06;99451.72;4959518;28;20058;-79
2020/12/03 08:05:40;;;;;;;16.83;9.68;;;4.00;99.90;;;4.43;86.25;99451.84;4978781;28;20352;-78
2020/12/03 08:08:39;;;;;;;17.27;9.55;;;4.00;99.90;;;4.42;86.43;99445.53;4988637;28;20096;-81
2020/12/03 08:11:41;;;;;;;16.75;9.82;;;4.00;99.90;;;4.36;86.25;99435.84;4987746;28;20062;-81
2020/12/03 08:14:37;;;;;;;18.50;10.15;;;4.00;99.90;;;4.45;86.50;99417.19;4956924;28;20669;-81
2020/12/03 08:17:17;;;;;;;16.67;9.30;;;4.00;99.90;;;4.43;86.42;99425.00;4995752;28;20125;-78
2020/12/03 08:20:06;;;;;;;21.42;10.63;;;4.00;99.90;;;4.38;87.44;99416.94;4978258;28;20034;-82
2020/12/03 08:22:41;;;;;;;18.92;10.48;;;4.00;99.90;;;4.28;87.01;99419.38;4972548;28;20038;-82
2020/12/03 08:25:30;;;;;;;18.17;10.32;;;4.00;99.90;;;4.41;86.76;99409.91;4970352;28;20032;-81
2020/12/03 08:28:05;;;;;;;16.92;9.55;;;4.00;99.90;;;4.44;86.86;99406.44;4987351;28;20034;-78
2020/12/03 08:30:37;;;;;;;18.63;9.87;;;4.00;99.90;;;4.40;86.67;99403.56;4977767;28;20406;-82
2020/12/03 08:33:34;;;;;;;;;;;;;;;;;;;;;
2020/12/03 08:36:07;;;;;;;18.45;11.05;;;4.00;99.90;;;4.37;87.24;99392.41;4988521;28;20030;-80
2020/12/03 08:38:39;;;;;;;19.40;11.43;;;4.00;99.90;;;4.34;87.04;99396.66;4986951;28;20019;-80
2020/12/03 08:41:12;;;;;;;17.17;10.40;;;4.00;99.90;;;4.36;86.73;99393.56;4995868;28;20508;-79
2020/12/03 08:43:47;;;;;;;16.50;10.02;;;4.00;99.90;;;4.28;86.77;99377.91;4978363;28;20466;-81
2020/12/03 08:46:18;;;;;;;19.27;10.23;;;4.00;99.90;;;4.41;87.09;99388.59;4978348;28;20128;-81
2020/12/03 08:48:44;;;;;;;19.08;11.40;;;4.00;99.90;;;4.34;86.98;99390.34;4994685;28;20046;-82
2020/12/03 08:51:13;;;;;;;16.42;10.15;;;4.00;99.90;;;4.43;86.75;99377.22;4994442;28;20418;-80
2020/12/03 08:53:51;;;;;;;18.27;10.32;;;4.00;99.90;;;4.35;86.81;99373.41;4994780;28;20113;-78
2020/12/03 08:56:17;;;;;;;16.30;10.10;;;4.00;99.90;;;4.38;86.04;99378.25;4995491;28;20034;-81
2020/12/03 08:58:59;;;;;;;17.83;10.30;;;4.10;99.90;;;4.44;85.54;99365.78;4991880;28;20030;-82
2020/12/03 09:01:36;;;;;;;17.33;10.05;;;4.00;99.90;;;4.49;86.67;99365.56;5011609;28;20050;-80
2020/12/03 09:04:04;;;;;;;22.45;11.00;;;4.10;99.90;;;4.45;86.47;99366.59;4985830;28;20153;-82
2020/12/03 09:06:52;;;;;;;16.25;9.73;;;4.10;99.90;;;4.46;85.90;99357.16;4981655;28;20030;-80
2020/12/03 09:17:12;;;;;;;19.17;10.40;;;4.10;99.90;;;4.50;85.71;99358.06;4900094;29;20412;-81
2020/12/03 09:19:41;;;;;;;18.02;10.05;;;4.10;99.90;;;4.42;86.23;99347.94;4915331;29;20032;-81
2020/12/03 09:22:10;;;;;;;16.80;8.82;;;4.10;99.90;;;4.57;85.57;99341.69;4915347;29;20478;-80
2020/12/03 09:24:38;;;;;;;17.52;10.55;;;4.10;99.90;;;4.65;85.73;99343.53;4900389;29;20142;-80
2020/12/03 09:27:08;;;;;;;19.20;11.20;;;4.10;99.90;;;4.62;86.06;99345.00;4902107;29;20060;-82
2020/12/03 09:29:35;;;;;;;17.67;10.30;;;4.10;99.90;;;4.56;86.29;99345.63;4914727;29;20031;-79
2020/12/03 09:32:13;;;;;;;18.50;9.27;;;4.10;99.90;;;4.48;86.05;99330.78;4916525;29;20396;-81
2020/12/03 09:34:41;;;;;;;18.33;9.63;;;4.10;99.90;;;4.58;86.18;99332.25;4932681;29;20149;-82
2020/12/03 09:37:07;;;;;;;15.57;9.52;;;4.20;99.90;;;4.63;85.87;99320.94;4918820;29;20024;-82
2020/12/03 09:39:35;;;;;;;16.58;9.23;;;4.20;99.90;;;4.63;85.45;99312.63;4916822;29;20039;-80
2020/12/03 09:42:14;;;;;;;14.38;8.98;;;4.20;99.90;;;4.64;85.82;99308.72;4933060;29;20489;-79
2020/12/03 09:44:48;;;;;;;15.25;8.73;;;4.20;99.90;;;4.64;85.54;99304.00;4916712;29;20024;-81
2020/12/03 09:47:18;;;;;;;14.65;8.65;;;4.20;99.90;;;4.66;85.01;99301.69;4917221;29;20039;-80
2020/12/03 09:49:47;;;;;;;15.90;9.52;;;4.20;99.90;;;4.63;86.25;99296.84;4932991;29;20042;-81
2020/12/03 09:52:14;;;;;;;14.73;9.50;;;4.20;99.90;;;4.64;86.63;99289.34;4931997;29;20050;-82
2020/12/03 09:54:41;;;;;;;16.88;9.30;;;4.20;99.90;;;4.63;86.01;99280.25;4918821;29;20036;-81
2020/12/03 09:57:12;;;;;;;18.75;10.13;;;4.30;99.90;;;4.60;86.04;99283.72;4934095;29;20484;-80
2020/12/03 09:59:40;;;;;;;15.93;9.77;;;4.30;99.90;;;4.67;85.93;99275.63;4927363;29;20036;-78
2020/12/03 10:02:11;;;;;;;15.00;9.40;;;4.30;99.90;;;4.67;86.92;99270.09;4915632;29;20024;-81
2020/12/03 10:05:11;;;;;;;15.07;9.48;;;4.30;99.90;;;4.75;86.37;99269.13;4900006;29;20029;-79
2020/12/03 10:07:54;;;;;;;14.73;9.75;;;4.30;99.90;;;4.75;86.57;99252.53;4932755;29;20115;-79
2020/12/03 10:11:06;;;;;;;16.17;9.73;;;4.30;99.90;;;4.63;86.21;99236.00;4932431;29;20036;-80
2020/12/03 10:14:21;;;;;;;13.75;9.02;;;4.30;99.90;;;4.71;85.64;99242.56;4933158;29;20519;-80
2020/12/03 10:17:05;;;;;;;14.13;8.13;;;4.30;99.90;;;4.69;85.75;99219.97;4886745;29;20040;-78
2020/12/03 10:19:58;;;;;;;15.30;8.95;;;4.30;99.90;;;4.86;85.55;99218.84;4921260;29;20041;-81
2020/12/03 10:23:24;;;;;;;14.07;8.80;;;4.30;99.90;;;4.81;85.32;99213.56;4915674;29;20058;-81
2020/12/03 10:26:48;;;;;;;17.13;8.70;;;4.30;99.90;;;4.92;85.24;99211.88;4893387;29;20043;-79
2020/12/03 10:29:32;;;;;;;13.80;8.35;;;4.30;99.90;;;4.87;85.23;99212.97;4892791;29;20047;-80
2020/12/03 10:32:12;;;;;;;17.80;9.82;;;4.40;99.90;;;4.84;85.33;99208.13;4917485;29;20555;-81
2020/12/03 10:34:43;;;;;;;15.93;9.27;;;4.40;99.90;;;5.00;84.92;99203.44;4932799;29;20063;-78
2020/12/03 10:37:37;;;;;;;16.23;9.23;;;4.50;99.90;;;5.08;84.33;99196.09;4914032;29;20029;-79
2020/12/03 10:40:24;;;;;;;17.38;9.98;;;4.50;99.90;;;4.98;84.23;99188.31;4891532;29;20028;-79
2020/12/03 10:43:10;;;;;;;16.90;9.85;;;4.60;99.90;;;5.01;84.11;99187.63;4936060;29;20555;-79
2020/12/03 10:45:41;;;;;;;17.73;10.57;;;4.60;99.90;;;5.17;84.20;99188.44;4923207;29;20087;-80
2020/12/03 10:48:24;;;;;;;13.25;8.38;;;4.70;99.90;;;5.19;83.51;99181.38;4934041;29;20059;-79
2020/12/03 10:51:02;;;;;;;15.48;9.38;;;4.70;99.90;;;5.13;84.37;99182.00;4936989;29;20043;-80
2020/12/03 10:53:31;;;;;;;13.90;9.07;;;4.70;99.90;;;5.19;83.76;99178.63;4939805;29;20036;-81
2020/12/03 10:56:06;;;;;;;14.52;9.35;;;4.70;99.90;;;5.04;84.27;99162.81;4916409;29;20060;-81
2020/12/03 10:59:06;;;;;;;13.60;8.07;;;4.80;99.90;;;5.19;83.98;99156.47;4925121;29;20025;-79
2020/12/03 11:01:35;;;;;;;14.98;8.25;;;4.90;99.90;;;5.30;83.36;99148.41;4918008;29;20047;-79
2020/12/03 11:04:09;;;;;;;14.93;9.40;;;4.90;99.90;;;5.36;83.09;99135.13;4921750;29;20020;-79
2020/12/03 11:06:36;;;;;;;13.10;7.82;;;5.00;99.90;;;5.43;82.86;99129.72;4905590;29;20054;-78
2020/12/03 11:09:05;;;;;;;12.23;8.05;;;5.00;99.90;;;5.62;82.29;99119.47;4910944;29;20064;-79
2020/12/03 11:11:37;;;;;;;12.82;8.05;;;5.20;99.90;;;5.54;82.21;99120.50;4920869;29;20123;-82
2020/12/03 11:14:16;;;;;;;13.10;7.57;;;5.20;99.90;;;5.48;82.34;99121.16;4926650;29;20496;-81
2020/12/03 11:17:07;;;;;;;14.45;8.25;;;5.20;99.90;;;5.55;83.11;99111.03;4920793;29;20198;-80
2020/12/03 11:19:37;;;;;;;14.57;8.30;;;5.20;99.90;;;5.60;82.36;99102.44;4928603;29;20032;-77
2020/12/03 11:22:40;;;;;;;13.38;8.10;;;5.20;99.90;;;5.59;82.58;99100.81;4909101;29;20028;-79
2020/12/03 11:25:13;;;;;;;12.80;8.35;;;5.20;99.90;;;5.65;82.55;99085.53;4940609;29;20035;-81
2020/12/03 11:27:42;;;;;;;12.90;8.23;;;5.20;99.90;;;5.56;82.32;99089.66;4943123;29;20032;-80
2020/12/03 11:30:17;;;;;;;13.18;7.25;;;5.20;99.90;;;5.60;81.89;99074.75;4941343;29;20020;-81
2020/12/03 11:32:48;;;;;;;12.30;7.75;;;5.20;99.90;;;5.53;81.41;99079.31;4939215;29;20055;-79
2020/12/03 11:35:35;;;;;;;10.63;7.18;;;5.20;99.90;;;5.63;81.40;99068.47;4912825;29;20024;-80
2020/12/03 11:38:04;;;;;;;13.57;7.47;;;5.30;99.90;;;6.01;81.41;99062.16;4918083;29;20028;-79
2020/12/03 11:40:45;;;;;;;11.68;6.75;;;5.50;99.90;;;6.28;79.55;99063.06;4920285;29;20033;-78
2020/12/03 11:48:31;;;;;;;12.43;7.22;;;5.80;99.90;;;6.09;80.20;99043.69;4899825;29;20087;-80
2020/12/03 11:50:57;;;;;;;11.13;6.87;;;5.80;99.90;;;5.63;81.21;99046.31;4905056;29;20187;-79
2020/12/03 11:53:24;;;;;;;11.77;7.43;;;5.60;99.90;;;5.69;80.92;99039.31;4934996;29;20535;-82